Ji_gui — V3WJ4 — position and weather

sailwx.info

Track history (hours):
 
Tides and Currents Weather Stations Pressure Air Temp Water Temp Dewpoint Dewpoint Depression Visibility Wind Speed Wind Dir Waves Ship Positions

Ji_gui

Last reported at 2018-Feb-10 08:08 UTC. Time now 2018-Feb-25 03:20 UTC.
Position N 34°33' E 130°32'.
Warning: this ship's position is 14 days out of date.

Length 100 m; draft 4.8 m.

Type: Cargo ship. MMSI: 312889000.

Date/timePositionNaut miles runAvg speedWind from/ knotsBaromVisibWave heightAir tempDewpointWater temp
2018-Feb-10 08:08N 34°33' E 130°32'410.3
2018-Feb-10 07:46N 34°30' E 130°33'410.0
2018-Feb-10 07:24N 34°26' E 130°35'4 9.4
2018-Feb-10 06:59N 34°22' E 130°36'4 8.7
2018-Feb-10 06:30N 34°19' E 130°38'4 8.5
2018-Feb-10 06:00N 34°15' E 130°41'4 9.0
2018-Feb-10 05:30N 34°11' E 130°42'5 9.6
2018-Feb-10 05:00N 34°06' E 130°44'5 9.2
2018-Feb-10 04:30N 34°03' E 130°48'5 9.7
2018-Feb-10 04:00N 33°60' E 130°53'4 8.9
2018-Feb-10 03:30N 33°55' E 130°53'3 7.0
2018-Feb-10 03:00N 33°57' E 130°57'4 8.8
2018-Feb-10 02:30N 33°58' E 131°02'510.6
2018-Feb-10 02:00N 33°55' E 131°07'510.6
2018-Feb-10 01:30N 33°52' E 131°13'510.7
2018-Feb-10 01:00N 33°51' E 131°19'510.6
2018-Feb-10 00:30N 33°50' E 131°25'510.4
2018-Feb-10 00:00N 33°48' E 131°31'510.3
2018-Feb-09 23:30N 33°47' E 131°37'510.3
2018-Feb-09 23:00N 33°46' E 131°43'310.5
2018-Feb-09 22:45N 33°44' E 131°45'249 8.7
2018-Feb-08 18:00N 34°06' E 136°44'47 8.5
2018-Feb-08 12:30N 34°53' E 136°46'10 0.9
2018-Feb-08 01:28N 35°02' E 136°48'0 0.0
2018-Feb-08 00:55N 35°02' E 136°48'0 0.0
2018-Feb-08 00:28N 35°02' E 136°48'0 0.0
2018-Feb-07 23:58N 35°02' E 136°48'0 0.0
2018-Feb-07 23:28N 35°02' E 136°48'0 0.0
2018-Feb-07 22:58N 35°02' E 136°48'0 0.0
2018-Feb-07 22:28N 35°02' E 136°48'0 0.0
2018-Feb-07 21:58N 35°02' E 136°48'0 0.0
2018-Feb-07 21:28N 35°02' E 136°48'0 0.0
2018-Feb-07 09:28N 35°02' E 136°48'0 0.0
2018-Feb-07 08:58N 35°02' E 136°48'0 0.0
2018-Feb-07 08:28N 35°02' E 136°48'0 0.0
2018-Feb-07 07:58N 35°02' E 136°48'0 0.0
2018-Feb-07 07:28N 35°02' E 136°48'0 0.0
2018-Feb-07 06:55N 35°02' E 136°48'0 0.0
2018-Feb-07 06:28N 35°02' E 136°48'0 0.0
2018-Feb-07 05:58N 35°02' E 136°48'0 0.0
2018-Feb-07 05:28N 35°02' E 136°48'0 0.0
2018-Feb-07 04:58N 35°02' E 136°48'0 0.0
2018-Feb-07 04:25N 35°02' E 136°48'0 0.0
2018-Feb-07 03:58N 35°02' E 136°48'0 0.0
2018-Feb-07 03:28N 35°02' E 136°48'0 0.0
2018-Feb-07 02:58N 35°02' E 136°48'0 0.0
2018-Feb-07 02:22N 35°02' E 136°48'0 0.0
2018-Feb-07 01:55N 35°02' E 136°48'0 0.0
2018-Feb-07 01:28N 35°02' E 136°48'0 0.0
2018-Feb-07 00:58N 35°02' E 136°48'0 0.0
2018-Feb-07 00:28N 35°02' E 136°48'0 0.0
2018-Feb-06 23:58N 35°02' E 136°48'0 0.0
2018-Feb-06 23:28N 35°02' E 136°48'0 0.0
2018-Feb-06 22:58N 35°02' E 136°48'0 0.0
2018-Feb-06 22:28N 35°02' E 136°48'0 0.0
2018-Feb-06 21:58N 35°02' E 136°48'0 0.0
2018-Feb-06 21:28N 35°02' E 136°48'0 0.0
2018-Feb-06 20:58N 35°02' E 136°48'0 0.0
2018-Feb-06 20:28N 35°02' E 136°48'0 0.0
2018-Feb-06 19:52N 35°02' E 136°48'0 0.0
2018-Feb-06 19:28N 35°02' E 136°48'0 0.0
2018-Feb-06 18:58N 35°02' E 136°48'0 0.0
2018-Feb-06 18:28N 35°02' E 136°48'0 0.0
2018-Feb-06 17:55N 35°02' E 136°48'0 0.0
2018-Feb-06 17:28N 35°02' E 136°48'0 0.0
2018-Feb-06 16:58N 35°02' E 136°48'0 0.0
2018-Feb-06 16:28N 35°02' E 136°48'0 0.0
2018-Feb-06 15:55N 35°02' E 136°48'0 0.0
2018-Feb-06 15:28N 35°02' E 136°48'0 0.0
2018-Feb-06 14:58N 35°02' E 136°48'0 0.0
2018-Feb-06 14:25N 35°02' E 136°48'0 0.0
2018-Feb-06 13:58N 35°02' E 136°48'0 0.0
2018-Feb-06 13:25N 35°02' E 136°48'0 0.0
2018-Feb-06 12:58N 35°02' E 136°48'0 0.0
2018-Feb-06 12:25N 35°02' E 136°48'0 0.0
2018-Feb-06 11:58N 35°02' E 136°48'0 0.0
2018-Feb-06 11:25N 35°02' E 136°48'0 0.0
2018-Feb-06 10:58N 35°02' E 136°48'0 0.0
2018-Feb-06 10:28N 35°02' E 136°48'0 0.0
2018-Feb-06 09:58N 35°02' E 136°48'0 0.0
2018-Feb-06 09:28N 35°02' E 136°48'0 0.0
2018-Feb-06 08:58N 35°02' E 136°48'0 0.0
2018-Feb-06 08:28N 35°02' E 136°48'0 0.0
2018-Feb-06 07:58N 35°02' E 136°48'0 0.0
2018-Feb-06 07:19N 35°02' E 136°48'0 0.0
2018-Feb-06 06:58N 35°02' E 136°48'0 0.0
2018-Feb-06 06:28N 35°02' E 136°48'0 0.0
2018-Feb-06 05:55N 35°02' E 136°48'0 0.0
2018-Feb-06 05:28N 35°02' E 136°48'0 0.0
2018-Feb-06 04:58N 35°02' E 136°48'0 0.0
2018-Feb-06 04:28N 35°02' E 136°48'0 0.0
2018-Feb-06 03:58N 35°02' E 136°48'0 0.0
2018-Feb-06 03:28N 35°02' E 136°48'0 0.0
2018-Feb-06 02:58N 35°02' E 136°48'0 0.0
2018-Feb-06 02:28N 35°02' E 136°48'0 0.0
2018-Feb-06 01:58N 35°02' E 136°48'0 0.0
2018-Feb-06 01:28N 35°02' E 136°48'0 0.0
2018-Feb-06 00:58N 35°02' E 136°48'0 0.0
2018-Feb-06 00:28N 35°02' E 136°48'0 0.0
2018-Feb-05 23:58N 35°02' E 136°48'0 0.0
2018-Feb-05 23:28N 35°02' E 136°48'0 0.0
2018-Feb-05 22:58N 35°02' E 136°48'0 0.0
2018-Feb-05 22:28N 35°02' E 136°48'0 0.0
2018-Feb-05 21:58N 35°02' E 136°48'0 0.0
2018-Feb-05 21:28N 35°02' E 136°48'0 0.0
2018-Feb-05 20:58N 35°02' E 136°48'0 0.0
2018-Feb-05 20:25N 35°02' E 136°48'0 0.0
2018-Feb-05 19:58N 35°02' E 136°48'0 0.0
2018-Feb-05 19:28N 35°02' E 136°48'0 0.0
2018-Feb-05 18:58N 35°02' E 136°48'0 0.0
2018-Feb-05 18:25N 35°02' E 136°48'0 0.0
2018-Feb-05 17:58N 35°02' E 136°48'0 0.0
2018-Feb-05 17:28N 35°02' E 136°48'0 0.0
2018-Feb-05 16:58N 35°02' E 136°48'0 0.0
2018-Feb-05 16:28N 35°02' E 136°48'0 0.0
2018-Feb-05 15:58N 35°02' E 136°48'0 0.0
2018-Feb-05 15:28N 35°02' E 136°48'0 0.0
2018-Feb-05 14:58N 35°02' E 136°48'0 0.0
2018-Feb-05 14:28N 35°02' E 136°48'0 0.0
2018-Feb-05 13:58N 35°02' E 136°48'0 0.0
2018-Feb-05 13:25N 35°02' E 136°48'0 0.0
2018-Feb-05 12:46N 35°02' E 136°48'0 0.0
2018-Feb-05 12:28N 35°02' E 136°48'0 0.0
2018-Feb-05 11:58N 35°02' E 136°48'0 0.0
2018-Feb-05 11:28N 35°02' E 136°48'0 0.0
2018-Feb-05 10:58N 35°02' E 136°48'0 0.0
2018-Feb-05 10:28N 35°02' E 136°48'0 0.0
2018-Feb-05 09:58N 35°02' E 136°48'0 0.0
2018-Feb-05 09:28N 35°02' E 136°48'0 0.0
2018-Feb-05 08:58N 35°02' E 136°48'0 0.0
2018-Feb-05 08:28N 35°02' E 136°48'0 0.0
2018-Feb-05 07:58N 35°02' E 136°48'0 0.0
2018-Feb-05 07:28N 35°02' E 136°48'0 0.0
2018-Feb-05 07:00N 35°02' E 136°48'0 0.6
2018-Feb-05 06:30N 35°02' E 136°48'5 5.4
2018-Feb-05 05:30N 34°57' E 136°45'0 0.0
2018-Feb-05 05:01N 34°57' E 136°45'0 0.0
2018-Feb-05 04:30N 34°57' E 136°45'0 0.0
2018-Feb-05 04:01N 34°57' E 136°45'0 0.0
2018-Feb-05 03:26N 34°57' E 136°45'0 0.0
2018-Feb-05 02:59N 34°57' E 136°45'0 0.0
2018-Feb-05 02:29N 34°57' E 136°45'0 0.0
2018-Feb-05 01:59N 34°57' E 136°45'0 0.0
2018-Feb-05 01:29N 34°57' E 136°45'0 0.0
2018-Feb-05 00:59N 34°57' E 136°45'0 0.0
2018-Feb-05 00:29N 34°57' E 136°45'0 0.0
2018-Feb-04 23:59N 34°57' E 136°45'0 0.0
2018-Feb-04 23:29N 34°57' E 136°45'0 0.0
2018-Feb-04 22:59N 34°57' E 136°45'0 0.0
2018-Feb-04 22:29N 34°57' E 136°45'0 0.0
2018-Feb-04 21:59N 34°57' E 136°45'0 0.0
2018-Feb-04 21:29N 34°57' E 136°45'0 0.0
2018-Feb-04 20:59N 34°57' E 136°45'0 0.0
2018-Feb-04 19:59N 34°57' E 136°45'0 0.0
2018-Feb-04 19:29N 34°57' E 136°45'0 0.0
2018-Feb-04 18:59N 34°57' E 136°45'0 0.0
2018-Feb-04 18:29N 34°57' E 136°45'0 0.0
2018-Feb-04 17:59N 34°57' E 136°45'0 0.0
2018-Feb-04 17:29N 34°57' E 136°45'0 0.0
2018-Feb-04 15:29N 34°57' E 136°45'0 0.0
2018-Feb-04 14:59N 34°57' E 136°45'0 0.0
2018-Feb-04 14:29N 34°57' E 136°45'0 0.1
2018-Feb-04 13:59N 34°57' E 136°45'0 0.1
2018-Feb-04 13:29N 34°57' E 136°45'0 0.2
2018-Feb-04 12:59N 34°57' E 136°45'0 0.0
2018-Feb-04 12:29N 34°57' E 136°45'0 0.1
2018-Feb-04 12:00N 34°57' E 136°45'3 6.2
2018-Feb-04 11:30N 34°54' E 136°46'1510.0
2018-Feb-04 10:00N 34°40' E 136°52'252 8.4
2018-Feb-03 04:00N 33°10' E 132°08'812.3
2018-Feb-03 03:22N 33°16' E 132°02'1511.1
2018-Feb-03 02:00N 33°29' E 131°52'510.4
2018-Feb-03 01:30N 33°34' E 131°50'510.4
2018-Feb-03 01:00N 33°38' E 131°47'510.4
2018-Feb-03 00:30N 33°43' E 131°44'5 9.1
2018-Feb-03 00:00N 33°46' E 131°40'5 9.5
2018-Feb-02 23:30N 33°47' E 131°34'5 9.8
2018-Feb-02 23:00N 33°48' E 131°29'5 9.9
2018-Feb-02 22:30N 33°49' E 131°23'510.1
2018-Feb-02 22:00N 33°50' E 131°17'510.2
2018-Feb-02 21:30N 33°51' E 131°11'510.8
2018-Feb-02 21:00N 33°54' E 131°06'611.3
2018-Feb-02 20:31N 33°58' E 131°01'612.5
2018-Feb-02 20:00N 33°54' E 130°55'1010.1
2018-Feb-02 19:00N 34°03' E 130°48'5 9.8
2018-Feb-02 18:30N 34°06' E 130°44'510.1
2018-Feb-02 18:01N 34°09' E 130°40'510.7
2018-Feb-02 17:30N 34°14' E 130°36'510.7
2018-Feb-02 17:00N 34°18' E 130°32'510.7
2018-Feb-02 16:31N 34°22' E 130°28'1110.8
2018-Feb-02 15:30N 34°31' E 130°20'3 0.1
2018-Jan-31 19:57N 34°29' E 130°22'4 9.5
2018-Jan-31 19:30N 34°25' E 130°25'5 9.6
2018-Jan-31 19:00N 34°22' E 130°29'5 9.6
2018-Jan-31 18:30N 34°18' E 130°33'5 9.7
2018-Jan-31 18:00N 34°14' E 130°36'510.0
2018-Jan-31 17:30N 34°10' E 130°40'510.1
2018-Jan-31 17:00N 34°06' E 130°44'5 9.9
2018-Jan-31 16:30N 34°03' E 130°49'5 9.8
2018-Jan-31 16:00N 33°60' E 130°53'4 9.0
2018-Jan-31 15:30N 33°55' E 130°54'3 6.1
2018-Jan-31 15:00N 33°57' E 130°57'4 8.8
2018-Jan-31 14:30N 33°58' E 131°02'1510.1
2018-Jan-31 13:00N 33°51' E 131°18'510.4
2018-Jan-31 12:30N 33°50' E 131°24'510.7
2018-Jan-31 12:00N 33°49' E 131°30'510.8
2018-Jan-31 11:30N 33°48' E 131°36'611.0
2018-Jan-31 11:00N 33°46' E 131°43'611.1
2018-Jan-31 10:29N 33°41' E 131°46'611.9
2018-Jan-31 10:00N 33°36' E 131°50'611.8
2018-Jan-31 09:30N 33°31' E 131°53'611.7
2018-Jan-31 08:58N 33°25' E 131°56'612.8
2018-Jan-31 08:28N 33°19' E 131°59'  
Track history (hours):
 
Tides and Currents Weather Stations Pressure Air Temp Water Temp Dewpoint Dewpoint Depression Visibility Wind Speed Wind Dir Waves Ship Positions

Ji_gui

Last reported at 2018-Feb-10 08:08 UTC. Time now 2018-Feb-25 03:20 UTC.
Position N 34°33' E 130°32'.
Warning: this ship's position is 14 days out of date.

Length 100 m; draft 4.8 m.

Type: Cargo ship. MMSI: 312889000.

Date/timePositionNaut miles runAvg speedWind from/ knotsBaromVisibWave heightAir tempDewpointWater temp
2018-Feb-10 08:08N 34°33' E 130°32'410.3
2018-Feb-10 07:46N 34°30' E 130°33'410.0
2018-Feb-10 07:24N 34°26' E 130°35'4 9.4
2018-Feb-10 06:59N 34°22' E 130°36'4 8.7
2018-Feb-10 06:30N 34°19' E 130°38'4 8.5
2018-Feb-10 06:00N 34°15' E 130°41'4 9.0
2018-Feb-10 05:30N 34°11' E 130°42'5 9.6
2018-Feb-10 05:00N 34°06' E 130°44'5 9.2
2018-Feb-10 04:30N 34°03' E 130°48'5 9.7
2018-Feb-10 04:00N 33°60' E 130°53'4 8.9
2018-Feb-10 03:30N 33°55' E 130°53'3 7.0
2018-Feb-10 03:00N 33°57' E 130°57'4 8.8
2018-Feb-10 02:30N 33°58' E 131°02'510.6
2018-Feb-10 02:00N 33°55' E 131°07'510.6
2018-Feb-10 01:30N 33°52' E 131°13'510.7
2018-Feb-10 01:00N 33°51' E 131°19'510.6
2018-Feb-10 00:30N 33°50' E 131°25'510.4
2018-Feb-10 00:00N 33°48' E 131°31'510.3
2018-Feb-09 23:30N 33°47' E 131°37'510.3
2018-Feb-09 23:00N 33°46' E 131°43'310.5
2018-Feb-09 22:45N 33°44' E 131°45'249 8.7
2018-Feb-08 18:00N 34°06' E 136°44'47 8.5
2018-Feb-08 12:30N 34°53' E 136°46'10 0.9
2018-Feb-08 01:28N 35°02' E 136°48'0 0.0
2018-Feb-08 00:55N 35°02' E 136°48'0 0.0
2018-Feb-08 00:28N 35°02' E 136°48'0 0.0
2018-Feb-07 23:58N 35°02' E 136°48'0 0.0
2018-Feb-07 23:28N 35°02' E 136°48'0 0.0
2018-Feb-07 22:58N 35°02' E 136°48'0 0.0
2018-Feb-07 22:28N 35°02' E 136°48'0 0.0
2018-Feb-07 21:58N 35°02' E 136°48'0 0.0
2018-Feb-07 21:28N 35°02' E 136°48'0 0.0
2018-Feb-07 09:28N 35°02' E 136°48'0 0.0
2018-Feb-07 08:58N 35°02' E 136°48'0 0.0
2018-Feb-07 08:28N 35°02' E 136°48'0 0.0
2018-Feb-07 07:58N 35°02' E 136°48'0 0.0
2018-Feb-07 07:28N 35°02' E 136°48'0 0.0
2018-Feb-07 06:55N 35°02' E 136°48'0 0.0
2018-Feb-07 06:28N 35°02' E 136°48'0 0.0
2018-Feb-07 05:58N 35°02' E 136°48'0 0.0
2018-Feb-07 05:28N 35°02' E 136°48'0 0.0
2018-Feb-07 04:58N 35°02' E 136°48'0 0.0
2018-Feb-07 04:25N 35°02' E 136°48'0 0.0
2018-Feb-07 03:58N 35°02' E 136°48'0 0.0
2018-Feb-07 03:28N 35°02' E 136°48'0 0.0
2018-Feb-07 02:58N 35°02' E 136°48'0 0.0
2018-Feb-07 02:22N 35°02' E 136°48'0 0.0
2018-Feb-07 01:55N 35°02' E 136°48'0 0.0
2018-Feb-07 01:28N 35°02' E 136°48'0 0.0
2018-Feb-07 00:58N 35°02' E 136°48'0 0.0
2018-Feb-07 00:28N 35°02' E 136°48'0 0.0
2018-Feb-06 23:58N 35°02' E 136°48'0 0.0
2018-Feb-06 23:28N 35°02' E 136°48'0 0.0
2018-Feb-06 22:58N 35°02' E 136°48'0 0.0
2018-Feb-06 22:28N 35°02' E 136°48'0 0.0
2018-Feb-06 21:58N 35°02' E 136°48'0 0.0
2018-Feb-06 21:28N 35°02' E 136°48'0 0.0
2018-Feb-06 20:58N 35°02' E 136°48'0 0.0
2018-Feb-06 20:28N 35°02' E 136°48'0 0.0
2018-Feb-06 19:52N 35°02' E 136°48'0 0.0
2018-Feb-06 19:28N 35°02' E 136°48'0 0.0
2018-Feb-06 18:58N 35°02' E 136°48'0 0.0
2018-Feb-06 18:28N 35°02' E 136°48'0 0.0
2018-Feb-06 17:55N 35°02' E 136°48'0 0.0
2018-Feb-06 17:28N 35°02' E 136°48'0 0.0
2018-Feb-06 16:58N 35°02' E 136°48'0 0.0
2018-Feb-06 16:28N 35°02' E 136°48'0 0.0
2018-Feb-06 15:55N 35°02' E 136°48'0 0.0
2018-Feb-06 15:28N 35°02' E 136°48'0 0.0
2018-Feb-06 14:58N 35°02' E 136°48'0 0.0
2018-Feb-06 14:25N 35°02' E 136°48'0 0.0
2018-Feb-06 13:58N 35°02' E 136°48'0 0.0
2018-Feb-06 13:25N 35°02' E 136°48'0 0.0
2018-Feb-06 12:58N 35°02' E 136°48'0 0.0
2018-Feb-06 12:25N 35°02' E 136°48'0 0.0
2018-Feb-06 11:58N 35°02' E 136°48'0 0.0
2018-Feb-06 11:25N 35°02' E 136°48'0 0.0
2018-Feb-06 10:58N 35°02' E 136°48'0 0.0
2018-Feb-06 10:28N 35°02' E 136°48'0 0.0
2018-Feb-06 09:58N 35°02' E 136°48'0 0.0
2018-Feb-06 09:28N 35°02' E 136°48'0 0.0
2018-Feb-06 08:58N 35°02' E 136°48'0 0.0
2018-Feb-06 08:28N 35°02' E 136°48'0 0.0
2018-Feb-06 07:58N 35°02' E 136°48'0 0.0
2018-Feb-06 07:19N 35°02' E 136°48'0 0.0
2018-Feb-06 06:58N 35°02' E 136°48'0 0.0
2018-Feb-06 06:28N 35°02' E 136°48'0 0.0
2018-Feb-06 05:55N 35°02' E 136°48'0 0.0
2018-Feb-06 05:28N 35°02' E 136°48'0 0.0
2018-Feb-06 04:58N 35°02' E 136°48'0 0.0
2018-Feb-06 04:28N 35°02' E 136°48'0 0.0
2018-Feb-06 03:58N 35°02' E 136°48'0 0.0
2018-Feb-06 03:28N 35°02' E 136°48'0 0.0
2018-Feb-06 02:58N 35°02' E 136°48'0 0.0
2018-Feb-06 02:28N 35°02' E 136°48'0 0.0
2018-Feb-06 01:58N 35°02' E 136°48'0 0.0
2018-Feb-06 01:28N 35°02' E 136°48'0 0.0
2018-Feb-06 00:58N 35°02' E 136°48'0 0.0
2018-Feb-06 00:28N 35°02' E 136°48'0 0.0
2018-Feb-05 23:58N 35°02' E 136°48'0 0.0
2018-Feb-05 23:28N 35°02' E 136°48'0 0.0
2018-Feb-05 22:58N 35°02' E 136°48'0 0.0
2018-Feb-05 22:28N 35°02' E 136°48'0 0.0
2018-Feb-05 21:58N 35°02' E 136°48'0 0.0
2018-Feb-05 21:28N 35°02' E 136°48'0 0.0
2018-Feb-05 20:58N 35°02' E 136°48'0 0.0
2018-Feb-05 20:25N 35°02' E 136°48'0 0.0
2018-Feb-05 19:58N 35°02' E 136°48'0 0.0
2018-Feb-05 19:28N 35°02' E 136°48'0 0.0
2018-Feb-05 18:58N 35°02' E 136°48'0 0.0
2018-Feb-05 18:25N 35°02' E 136°48'0 0.0
2018-Feb-05 17:58N 35°02' E 136°48'0 0.0
2018-Feb-05 17:28N 35°02' E 136°48'0 0.0
2018-Feb-05 16:58N 35°02' E 136°48'0 0.0
2018-Feb-05 16:28N 35°02' E 136°48'0 0.0
2018-Feb-05 15:58N 35°02' E 136°48'0 0.0
2018-Feb-05 15:28N 35°02' E 136°48'0 0.0
2018-Feb-05 14:58N 35°02' E 136°48'0 0.0
2018-Feb-05 14:28N 35°02' E 136°48'0 0.0
2018-Feb-05 13:58N 35°02' E 136°48'0 0.0
2018-Feb-05 13:25N 35°02' E 136°48'0 0.0
2018-Feb-05 12:46N 35°02' E 136°48'0 0.0
2018-Feb-05 12:28N 35°02' E 136°48'0 0.0
2018-Feb-05 11:58N 35°02' E 136°48'0 0.0
2018-Feb-05 11:28N 35°02' E 136°48'0 0.0
2018-Feb-05 10:58N 35°02' E 136°48'0 0.0
2018-Feb-05 10:28N 35°02' E 136°48'0 0.0
2018-Feb-05 09:58N 35°02' E 136°48'0 0.0
2018-Feb-05 09:28N 35°02' E 136°48'0 0.0
2018-Feb-05 08:58N 35°02' E 136°48'0 0.0
2018-Feb-05 08:28N 35°02' E 136°48'0 0.0
2018-Feb-05 07:58N 35°02' E 136°48'0 0.0
2018-Feb-05 07:28N 35°02' E 136°48'0 0.0
2018-Feb-05 07:00N 35°02' E 136°48'0 0.6
2018-Feb-05 06:30N 35°02' E 136°48'5 5.4
2018-Feb-05 05:30N 34°57' E 136°45'0 0.0
2018-Feb-05 05:01N 34°57' E 136°45'0 0.0
2018-Feb-05 04:30N 34°57' E 136°45'0 0.0
2018-Feb-05 04:01N 34°57' E 136°45'0 0.0
2018-Feb-05 03:26N 34°57' E 136°45'0 0.0
2018-Feb-05 02:59N 34°57' E 136°45'0 0.0
2018-Feb-05 02:29N 34°57' E 136°45'0 0.0
2018-Feb-05 01:59N 34°57' E 136°45'0 0.0
2018-Feb-05 01:29N 34°57' E 136°45'0 0.0
2018-Feb-05 00:59N 34°57' E 136°45'0 0.0
2018-Feb-05 00:29N 34°57' E 136°45'0 0.0
2018-Feb-04 23:59N 34°57' E 136°45'0 0.0
2018-Feb-04 23:29N 34°57' E 136°45'0 0.0
2018-Feb-04 22:59N 34°57' E 136°45'0 0.0
2018-Feb-04 22:29N 34°57' E 136°45'0 0.0
2018-Feb-04 21:59N 34°57' E 136°45'0 0.0
2018-Feb-04 21:29N 34°57' E 136°45'0 0.0
2018-Feb-04 20:59N 34°57' E 136°45'0 0.0
2018-Feb-04 19:59N 34°57' E 136°45'0 0.0
2018-Feb-04 19:29N 34°57' E 136°45'0 0.0
2018-Feb-04 18:59N 34°57' E 136°45'0 0.0
2018-Feb-04 18:29N 34°57' E 136°45'0 0.0
2018-Feb-04 17:59N 34°57' E 136°45'0 0.0
2018-Feb-04 17:29N 34°57' E 136°45'0 0.0
2018-Feb-04 15:29N 34°57' E 136°45'0 0.0
2018-Feb-04 14:59N 34°57' E 136°45'0 0.0
2018-Feb-04 14:29N 34°57' E 136°45'0 0.1
2018-Feb-04 13:59N 34°57' E 136°45'0 0.1
2018-Feb-04 13:29N 34°57' E 136°45'0 0.2
2018-Feb-04 12:59N 34°57' E 136°45'0 0.0
2018-Feb-04 12:29N 34°57' E 136°45'0 0.1
2018-Feb-04 12:00N 34°57' E 136°45'3 6.2
2018-Feb-04 11:30N 34°54' E 136°46'1510.0
2018-Feb-04 10:00N 34°40' E 136°52'252 8.4
2018-Feb-03 04:00N 33°10' E 132°08'812.3
2018-Feb-03 03:22N 33°16' E 132°02'1511.1
2018-Feb-03 02:00N 33°29' E 131°52'510.4
2018-Feb-03 01:30N 33°34' E 131°50'510.4
2018-Feb-03 01:00N 33°38' E 131°47'510.4
2018-Feb-03 00:30N 33°43' E 131°44'5 9.1
2018-Feb-03 00:00N 33°46' E 131°40'5 9.5
2018-Feb-02 23:30N 33°47' E 131°34'5 9.8
2018-Feb-02 23:00N 33°48' E 131°29'5 9.9
2018-Feb-02 22:30N 33°49' E 131°23'510.1
2018-Feb-02 22:00N 33°50' E 131°17'510.2
2018-Feb-02 21:30N 33°51' E 131°11'510.8
2018-Feb-02 21:00N 33°54' E 131°06'611.3
2018-Feb-02 20:31N 33°58' E 131°01'612.5
2018-Feb-02 20:00N 33°54' E 130°55'1010.1
2018-Feb-02 19:00N 34°03' E 130°48'5 9.8
2018-Feb-02 18:30N 34°06' E 130°44'510.1
2018-Feb-02 18:01N 34°09' E 130°40'510.7
2018-Feb-02 17:30N 34°14' E 130°36'510.7
2018-Feb-02 17:00N 34°18' E 130°32'510.7
2018-Feb-02 16:31N 34°22' E 130°28'1110.8
2018-Feb-02 15:30N 34°31' E 130°20'3 0.1
2018-Jan-31 19:57N 34°29' E 130°22'4 9.5
2018-Jan-31 19:30N 34°25' E 130°25'5 9.6
2018-Jan-31 19:00N 34°22' E 130°29'5 9.6
2018-Jan-31 18:30N 34°18' E 130°33'5 9.7
2018-Jan-31 18:00N 34°14' E 130°36'510.0
2018-Jan-31 17:30N 34°10' E 130°40'510.1
2018-Jan-31 17:00N 34°06' E 130°44'5 9.9
2018-Jan-31 16:30N 34°03' E 130°49'5 9.8
2018-Jan-31 16:00N 33°60' E 130°53'4 9.0
2018-Jan-31 15:30N 33°55' E 130°54'3 6.1
2018-Jan-31 15:00N 33°57' E 130°57'4 8.8
2018-Jan-31 14:30N 33°58' E 131°02'1510.1
2018-Jan-31 13:00N 33°51' E 131°18'510.4
2018-Jan-31 12:30N 33°50' E 131°24'510.7
2018-Jan-31 12:00N 33°49' E 131°30'510.8
2018-Jan-31 11:30N 33°48' E 131°36'611.0
2018-Jan-31 11:00N 33°46' E 131°43'611.1
2018-Jan-31 10:29N 33°41' E 131°46'611.9
2018-Jan-31 10:00N 33°36' E 131°50'611.8
2018-Jan-31 09:30N 33°31' E 131°53'611.7
2018-Jan-31 08:58N 33°25' E 131°56'612.8
2018-Jan-31 08:28N 33°19' E 131°59'  

Dump ship's entire track history